sensor_id;sensor_type;location;lat;lon;timestamp;P1;durP1;ratioP1;P2;durP2;ratioP2
12214;SDS011;6170;42.206;24.142;2023-09-07T00:00:34;19.40;;;18.30;;
12214;SDS011;6170;42.206;24.142;2023-09-07T00:03:02;20.73;;;19.45;;
12214;SDS011;6170;42.206;24.142;2023-09-07T00:05:30;16.85;;;15.82;;
12214;SDS011;6170;42.206;24.142;2023-09-07T00:07:57;17.92;;;16.80;;
12214;SDS011;6170;42.206;24.142;2023-09-07T00:10:25;15.25;;;14.35;;
12214;SDS011;6170;42.206;24.142;2023-09-07T00:12:52;15.68;;;14.57;;
12214;SDS011;6170;42.206;24.142;2023-09-07T00:15:20;16.02;;;14.95;;
12214;SDS011;6170;42.206;24.142;2023-09-07T00:17:47;14.77;;;13.88;;
12214;SDS011;6170;42.206;24.142;2023-09-07T00:20:17;16.30;;;15.30;;
12214;SDS011;6170;42.206;24.142;2023-09-07T00:22:46;16.20;;;15.23;;
12214;SDS011;6170;42.206;24.142;2023-09-07T00:25:14;15.13;;;14.23;;
12214;SDS011;6170;42.206;24.142;2023-09-07T00:27:41;16.40;;;15.40;;
12214;SDS011;6170;42.206;24.142;2023-09-07T00:30:09;15.73;;;14.73;;
12214;SDS011;6170;42.206;24.142;2023-09-07T00:32:37;15.23;;;14.23;;
12214;SDS011;6170;42.206;24.142;2023-09-07T00:35:04;14.48;;;13.57;;
12214;SDS011;6170;42.206;24.142;2023-09-07T00:37:33;14.38;;;13.48;;
12214;SDS011;6170;42.206;24.142;2023-09-07T00:40:01;15.00;;;14.10;;
12214;SDS011;6170;42.206;24.142;2023-09-07T00:42:29;14.57;;;13.68;;
12214;SDS011;6170;42.206;24.142;2023-09-07T00:44:56;14.15;;;13.25;;
12214;SDS011;6170;42.206;24.142;2023-09-07T00:47:23;14.55;;;13.65;;
12214;SDS011;6170;42.206;24.142;2023-09-07T00:49:49;13.60;;;12.70;;
12214;SDS011;6170;42.206;24.142;2023-09-07T00:52:17;15.35;;;14.35;;
12214;SDS011;6170;42.206;24.142;2023-09-07T00:54:47;16.20;;;15.15;;
12214;SDS011;6170;42.206;24.142;2023-09-07T00:57:15;13.15;;;12.35;;
12214;SDS011;6170;42.206;24.142;2023-09-07T00:59:43;14.05;;;13.15;;
12214;SDS011;6170;42.206;24.142;2023-09-07T01:02:10;15.35;;;14.45;;
12214;SDS011;6170;42.206;24.142;2023-09-07T01:04:37;12.95;;;12.15;;
12214;SDS011;6170;42.206;24.142;2023-09-07T01:07:07;13.13;;;12.32;;
12214;SDS011;6170;42.206;24.142;2023-09-07T01:09:40;13.52;;;12.73;;
12214;SDS011;6170;42.206;24.142;2023-09-07T01:12:15;13.13;;;12.32;;
12214;SDS011;6170;42.206;24.142;2023-09-07T01:14:42;14.63;;;13.73;;
12214;SDS011;6170;42.206;24.142;2023-09-07T01:17:11;13.93;;;13.13;;
12214;SDS011;6170;42.206;24.142;2023-09-07T01:19:39;13.40;;;12.60;;
12214;SDS011;6170;42.206;24.142;2023-09-07T01:22:08;12.88;;;12.18;;
12214;SDS011;6170;42.206;24.142;2023-09-07T01:24:36;12.35;;;11.55;;
12214;SDS011;6170;42.206;24.142;2023-09-07T01:27:05;12.55;;;11.85;;
12214;SDS011;6170;42.206;24.142;2023-09-07T01:29:33;12.73;;;12.02;;
12214;SDS011;6170;42.206;24.142;2023-09-07T01:32:01;11.45;;;10.75;;
12214;SDS011;6170;42.206;24.142;2023-09-07T01:34:29;11.88;;;11.18;;
12214;SDS011;6170;42.206;24.142;2023-09-07T01:36:56;13.15;;;12.35;;
12214;SDS011;6170;42.206;24.142;2023-09-07T01:39:25;11.65;;;10.95;;
12214;SDS011;6170;42.206;24.142;2023-09-07T01:41:52;12.48;;;11.73;;
12214;SDS011;6170;42.206;24.142;2023-09-07T01:44:19;14.07;;;13.18;;
12214;SDS011;6170;42.206;24.142;2023-09-07T01:46:46;15.70;;;14.68;;
12214;SDS011;6170;42.206;24.142;2023-09-07T01:49:13;14.25;;;13.27;;
12214;SDS011;6170;42.206;24.142;2023-09-07T01:51:41;14.63;;;13.82;;
12214;SDS011;6170;42.206;24.142;2023-09-07T01:54:08;15.10;;;14.10;;
12214;SDS011;6170;42.206;24.142;2023-09-07T01:56:37;15.48;;;14.48;;
12214;SDS011;6170;42.206;24.142;2023-09-07T01:59:06;15.90;;;14.80;;
12214;SDS011;6170;42.206;24.142;2023-09-07T02:01:33;17.15;;;16.08;;
12214;SDS011;6170;42.206;24.142;2023-09-07T02:04:02;15.52;;;14.52;;
12214;SDS011;6170;42.206;24.142;2023-09-07T02:06:30;16.17;;;14.98;;
12214;SDS011;6170;42.206;24.142;2023-09-07T02:08:57;15.40;;;14.23;;
12214;SDS011;6170;42.206;24.142;2023-09-07T02:11:24;14.88;;;13.88;;
12214;SDS011;6170;42.206;24.142;2023-09-07T02:13:53;15.15;;;14.05;;
12214;SDS011;6170;42.206;24.142;2023-09-07T02:16:20;14.05;;;13.15;;
12214;SDS011;6170;42.206;24.142;2023-09-07T02:18:49;15.07;;;14.18;;
12214;SDS011;6170;42.206;24.142;2023-09-07T02:21:16;14.60;;;13.68;;
12214;SDS011;6170;42.206;24.142;2023-09-07T02:23:43;14.77;;;13.88;;
12214;SDS011;6170;42.206;24.142;2023-09-07T02:26:11;16.50;;;15.40;;
12214;SDS011;6170;42.206;24.142;2023-09-07T02:28:38;13.73;;;12.93;;
12214;SDS011;6170;42.206;24.142;2023-09-07T02:31:07;13.93;;;13.02;;
12214;SDS011;6170;42.206;24.142;2023-09-07T02:33:34;15.43;;;14.45;;
12214;SDS011;6170;42.206;24.142;2023-09-07T02:36:02;14.07;;;13.18;;
12214;SDS011;6170;42.206;24.142;2023-09-07T02:38:29;14.85;;;13.95;;
12214;SDS011;6170;42.206;24.142;2023-09-07T02:40:56;15.15;;;14.23;;
12214;SDS011;6170;42.206;24.142;2023-09-07T02:43:24;15.35;;;14.35;;
12214;SDS011;6170;42.206;24.142;2023-09-07T02:45:51;14.27;;;13.38;;
12214;SDS011;6170;42.206;24.142;2023-09-07T02:48:19;15.35;;;14.35;;
12214;SDS011;6170;42.206;24.142;2023-09-07T02:50:47;15.90;;;14.90;;
12214;SDS011;6170;42.206;24.142;2023-09-07T02:53:15;14.13;;;13.32;;
12214;SDS011;6170;42.206;24.142;2023-09-07T02:55:43;15.52;;;14.52;;
12214;SDS011;6170;42.206;24.142;2023-09-07T02:58:10;14.75;;;13.85;;
12214;SDS011;6170;42.206;24.142;2023-09-07T03:00:41;16.10;;;15.02;;
12214;SDS011;6170;42.206;24.142;2023-09-07T03:03:09;17.87;;;16.87;;
12214;SDS011;6170;42.206;24.142;2023-09-07T03:05:39;17.10;;;16.10;;
12214;SDS011;6170;42.206;24.142;2023-09-07T03:08:06;15.98;;;14.98;;
12214;SDS011;6170;42.206;24.142;2023-09-07T03:10:34;14.85;;;13.80;;
12214;SDS011;6170;42.206;24.142;2023-09-07T03:13:02;15.35;;;14.35;;
12214;SDS011;6170;42.206;24.142;2023-09-07T03:15:30;15.40;;;14.30;;
12214;SDS011;6170;42.206;24.142;2023-09-07T03:17:57;15.25;;;14.35;;
12214;SDS011;6170;42.206;24.142;2023-09-07T03:20:25;14.55;;;13.63;;
12214;SDS011;6170;42.206;24.142;2023-09-07T03:22:54;16.90;;;15.65;;
12214;SDS011;6170;42.206;24.142;2023-09-07T03:25:21;16.13;;;15.13;;
12214;SDS011;6170;42.206;24.142;2023-09-07T03:27:48;15.90;;;14.80;;
12214;SDS011;6170;42.206;24.142;2023-09-07T03:30:16;14.35;;;13.50;;
12214;SDS011;6170;42.206;24.142;2023-09-07T03:32:43;15.07;;;14.07;;
12214;SDS011;6170;42.206;24.142;2023-09-07T03:35:11;13.88;;;13.02;;
12214;SDS011;6170;42.206;24.142;2023-09-07T03:37:38;13.73;;;12.82;;
12214;SDS011;6170;42.206;24.142;2023-09-07T03:40:08;14.07;;;13.18;;
12214;SDS011;6170;42.206;24.142;2023-09-07T03:42:35;13.82;;;12.93;;
12214;SDS011;6170;42.206;24.142;2023-09-07T03:45:03;13.82;;;12.93;;
12214;SDS011;6170;42.206;24.142;2023-09-07T03:47:30;12.85;;;12.00;;
12214;SDS011;6170;42.206;24.142;2023-09-07T03:49:57;12.65;;;11.75;;
12214;SDS011;6170;42.206;24.142;2023-09-07T03:52:25;12.73;;;11.93;;
12214;SDS011;6170;42.206;24.142;2023-09-07T03:54:53;12.00;;;11.20;;
12214;SDS011;6170;42.206;24.142;2023-09-07T03:57:22;11.70;;;10.98;;
12214;SDS011;6170;42.206;24.142;2023-09-07T03:59:50;10.95;;;10.25;;
12214;SDS011;6170;42.206;24.142;2023-09-07T04:02:17;11.80;;;10.93;;
12214;SDS011;6170;42.206;24.142;2023-09-07T04:04:47;11.65;;;10.85;;
12214;SDS011;6170;42.206;24.142;2023-09-07T04:07:15;11.68;;;10.88;;
12214;SDS011;6170;42.206;24.142;2023-09-07T04:09:42;13.52;;;12.25;;
12214;SDS011;6170;42.206;24.142;2023-09-07T04:12:10;12.52;;;11.63;;
12214;SDS011;6170;42.206;24.142;2023-09-07T04:14:39;11.55;;;10.68;;
12214;SDS011;6170;42.206;24.142;2023-09-07T04:17:07;12.50;;;11.70;;
12214;SDS011;6170;42.206;24.142;2023-09-07T04:19:34;11.98;;;11.18;;
12214;SDS011;6170;42.206;24.142;2023-09-07T04:22:01;11.23;;;10.35;;
12214;SDS011;6170;42.206;24.142;2023-09-07T04:24:28;11.65;;;10.55;;
12214;SDS011;6170;42.206;24.142;2023-09-07T04:26:57;11.80;;;11.00;;
12214;SDS011;6170;42.206;24.142;2023-09-07T04:29:26;11.93;;;11.13;;
12214;SDS011;6170;42.206;24.142;2023-09-07T04:31:54;14.70;;;13.70;;
12214;SDS011;6170;42.206;24.142;2023-09-07T04:34:21;12.05;;;11.25;;
12214;SDS011;6170;42.206;24.142;2023-09-07T04:36:48;12.32;;;11.43;;
12214;SDS011;6170;42.206;24.142;2023-09-07T04:39:15;13.13;;;12.32;;
12214;SDS011;6170;42.206;24.142;2023-09-07T04:41:43;13.57;;;12.68;;
12214;SDS011;6170;42.206;24.142;2023-09-07T04:44:10;13.23;;;12.23;;
12214;SDS011;6170;42.206;24.142;2023-09-07T04:46:37;15.52;;;14.52;;
12214;SDS011;6170;42.206;24.142;2023-09-07T04:49:05;14.40;;;13.48;;
12214;SDS011;6170;42.206;24.142;2023-09-07T04:51:32;13.73;;;12.82;;
12214;SDS011;6170;42.206;24.142;2023-09-07T04:53:59;13.82;;;12.93;;
12214;SDS011;6170;42.206;24.142;2023-09-07T04:56:26;13.57;;;12.77;;
12214;SDS011;6170;42.206;24.142;2023-09-07T04:58:54;13.07;;;12.27;;
12214;SDS011;6170;42.206;24.142;2023-09-07T05:01:21;14.05;;;13.15;;
12214;SDS011;6170;42.206;24.142;2023-09-07T05:03:48;14.18;;;13.30;;
12214;SDS011;6170;42.206;24.142;2023-09-07T05:06:17;13.40;;;12.63;;
12214;SDS011;6170;42.206;24.142;2023-09-07T05:08:44;14.98;;;13.98;;
12214;SDS011;6170;42.206;24.142;2023-09-07T05:11:11;14.80;;;13.90;;
12214;SDS011;6170;42.206;24.142;2023-09-07T05:13:38;13.77;;;12.88;;
12214;SDS011;6170;42.206;24.142;2023-09-07T05:16:05;13.77;;;12.80;;
12214;SDS011;6170;42.206;24.142;2023-09-07T05:18:33;19.83;;;18.63;;
12214;SDS011;6170;42.206;24.142;2023-09-07T05:21:00;18.25;;;17.15;;
12214;SDS011;6170;42.206;24.142;2023-09-07T05:23:28;12.50;;;11.70;;
12214;SDS011;6170;42.206;24.142;2023-09-07T05:25:55;16.08;;;15.07;;
12214;SDS011;6170;42.206;24.142;2023-09-07T05:28:22;17.02;;;16.00;;
12214;SDS011;6170;42.206;24.142;2023-09-07T05:30:50;19.77;;;18.65;;
12214;SDS011;6170;42.206;24.142;2023-09-07T05:33:17;17.98;;;16.92;;
12214;SDS011;6170;42.206;24.142;2023-09-07T05:35:44;16.08;;;15.05;;
12214;SDS011;6170;42.206;24.142;2023-09-07T05:38:12;13.63;;;12.80;;
12214;SDS011;6170;42.206;24.142;2023-09-07T05:40:41;14.00;;;13.10;;
12214;SDS011;6170;42.206;24.142;2023-09-07T05:43:09;12.48;;;11.73;;
12214;SDS011;6170;42.206;24.142;2023-09-07T05:45:37;12.93;;;12.18;;
12214;SDS011;6170;42.206;24.142;2023-09-07T05:48:05;12.93;;;12.18;;
12214;SDS011;6170;42.206;24.142;2023-09-07T05:50:33;12.40;;;11.70;;
12214;SDS011;6170;42.206;24.142;2023-09-07T05:53:02;13.00;;;12.20;;
12214;SDS011;6170;42.206;24.142;2023-09-07T05:55:30;12.35;;;11.65;;
12214;SDS011;6170;42.206;24.142;2023-09-07T05:57:58;12.57;;;11.88;;
12214;SDS011;6170;42.206;24.142;2023-09-07T06:00:26;13.35;;;12.55;;
12214;SDS011;6170;42.206;24.142;2023-09-07T06:02:53;12.80;;;11.80;;
12214;SDS011;6170;42.206;24.142;2023-09-07T06:05:20;12.80;;;12.00;;
12214;SDS011;6170;42.206;24.142;2023-09-07T06:07:47;13.73;;;12.93;;
12214;SDS011;6170;42.206;24.142;2023-09-07T06:10:14;13.57;;;12.77;;
12214;SDS011;6170;42.206;24.142;2023-09-07T06:12:42;14.18;;;13.38;;
12214;SDS011;6170;42.206;24.142;2023-09-07T06:15:11;12.40;;;11.70;;
12214;SDS011;6170;42.206;24.142;2023-09-07T06:17:38;13.88;;;12.98;;
12214;SDS011;6170;42.206;24.142;2023-09-07T06:20:05;11.98;;;11.27;;
12214;SDS011;6170;42.206;24.142;2023-09-07T06:22:33;12.25;;;11.45;;
12214;SDS011;6170;42.206;24.142;2023-09-07T06:25:00;12.98;;;12.23;;
12214;SDS011;6170;42.206;24.142;2023-09-07T06:27:27;14.82;;;13.93;;
12214;SDS011;6170;42.206;24.142;2023-09-07T06:29:54;12.68;;;11.95;;
12214;SDS011;6170;42.206;24.142;2023-09-07T06:32:23;13.60;;;12.80;;
12214;SDS011;6170;42.206;24.142;2023-09-07T06:34:50;13.55;;;12.77;;
12214;SDS011;6170;42.206;24.142;2023-09-07T06:37:17;13.57;;;12.82;;
12214;SDS011;6170;42.206;24.142;2023-09-07T06:39:44;14.30;;;13.50;;
12214;SDS011;6170;42.206;24.142;2023-09-07T06:42:11;14.25;;;13.30;;
12214;SDS011;6170;42.206;24.142;2023-09-07T06:44:40;15.30;;;14.40;;
12214;SDS011;6170;42.206;24.142;2023-09-07T06:47:08;14.82;;;13.93;;
12214;SDS011;6170;42.206;24.142;2023-09-07T06:49:37;15.48;;;14.57;;
12214;SDS011;6170;42.206;24.142;2023-09-07T06:52:04;17.35;;;16.35;;
12214;SDS011;6170;42.206;24.142;2023-09-07T06:54:31;16.92;;;16.02;;
12214;SDS011;6170;42.206;24.142;2023-09-07T06:56:58;15.52;;;14.63;;
12214;SDS011;6170;42.206;24.142;2023-09-07T06:59:25;16.02;;;15.02;;
12214;SDS011;6170;42.206;24.142;2023-09-07T07:01:52;20.52;;;19.35;;
12214;SDS011;6170;42.206;24.142;2023-09-07T07:04:19;15.05;;;14.15;;
12214;SDS011;6170;42.206;24.142;2023-09-07T07:06:47;19.77;;;18.70;;
12214;SDS011;6170;42.206;24.142;2023-09-07T07:09:14;17.00;;;15.88;;
12214;SDS011;6170;42.206;24.142;2023-09-07T07:11:41;15.98;;;14.98;;
12214;SDS011;6170;42.206;24.142;2023-09-07T07:14:09;15.00;;;14.07;;
12214;SDS011;6170;42.206;24.142;2023-09-07T07:16:37;13.98;;;13.18;;
12214;SDS011;6170;42.206;24.142;2023-09-07T07:19:04;14.68;;;13.77;;
12214;SDS011;6170;42.206;24.142;2023-09-07T07:21:31;14.68;;;13.82;;
12214;SDS011;6170;42.206;24.142;2023-09-07T07:23:59;12.65;;;11.95;;
12214;SDS011;6170;42.206;24.142;2023-09-07T07:26:26;13.90;;;12.95;;
12214;SDS011;6170;42.206;24.142;2023-09-07T07:28:53;12.85;;;12.07;;
12214;SDS011;6170;42.206;24.142;2023-09-07T07:31:20;14.45;;;13.57;;
12214;SDS011;6170;42.206;24.142;2023-09-07T07:33:47;13.93;;;13.02;;
12214;SDS011;6170;42.206;24.142;2023-09-07T07:36:15;13.40;;;12.52;;
12214;SDS011;6170;42.206;24.142;2023-09-07T07:38:42;13.73;;;12.93;;
12214;SDS011;6170;42.206;24.142;2023-09-07T07:41:10;11.98;;;11.27;;
12214;SDS011;6170;42.206;24.142;2023-09-07T07:43:37;11.70;;;11.00;;
12214;SDS011;6170;42.206;24.142;2023-09-07T07:46:04;13.15;;;12.25;;
12214;SDS011;6170;42.206;24.142;2023-09-07T07:48:32;13.60;;;12.80;;
12214;SDS011;6170;42.206;24.142;2023-09-07T07:51:02;12.52;;;11.82;;
12214;SDS011;6170;42.206;24.142;2023-09-07T07:53:30;15.23;;;14.32;;
12214;SDS011;6170;42.206;24.142;2023-09-07T07:55:57;13.40;;;12.60;;
12214;SDS011;6170;42.206;24.142;2023-09-07T07:58:25;18.30;;;17.23;;
12214;SDS011;6170;42.206;24.142;2023-09-07T08:00:52;17.30;;;16.40;;
12214;SDS011;6170;42.206;24.142;2023-09-07T08:03:23;19.40;;;18.33;;
12214;SDS011;6170;42.206;24.142;2023-09-07T08:05:50;16.10;;;15.20;;
12214;SDS011;6170;42.206;24.142;2023-09-07T08:08:17;15.70;;;14.90;;
12214;SDS011;6170;42.206;24.142;2023-09-07T08:10:44;20.30;;;19.23;;
12214;SDS011;6170;42.206;24.142;2023-09-07T08:13:11;20.02;;;18.92;;
12214;SDS011;6170;42.206;24.142;2023-09-07T08:15:40;13.73;;;12.93;;
12214;SDS011;6170;42.206;24.142;2023-09-07T08:18:07;15.70;;;14.80;;
12214;SDS011;6170;42.206;24.142;2023-09-07T08:20:35;21.05;;;19.95;;
12214;SDS011;6170;42.206;24.142;2023-09-07T08:23:03;23.88;;;22.58;;
12214;SDS011;6170;42.206;24.142;2023-09-07T08:25:33;14.10;;;13.30;;
12214;SDS011;6170;42.206;24.142;2023-09-07T08:28:00;18.15;;;17.15;;
12214;SDS011;6170;42.206;24.142;2023-09-07T08:30:30;14.23;;;13.35;;
12214;SDS011;6170;42.206;24.142;2023-09-07T08:32:59;15.48;;;14.57;;
12214;SDS011;6170;42.206;24.142;2023-09-07T08:35:27;14.65;;;13.80;;
12214;SDS011;6170;42.206;24.142;2023-09-07T08:37:54;12.20;;;11.45;;
12214;SDS011;6170;42.206;24.142;2023-09-07T08:40:23;15.18;;;14.35;;
12214;SDS011;6170;42.206;24.142;2023-09-07T08:42:52;16.10;;;15.15;;
12214;SDS011;6170;42.206;24.142;2023-09-07T08:45:20;14.35;;;13.55;;
12214;SDS011;6170;42.206;24.142;2023-09-07T08:47:50;14.50;;;13.60;;
12214;SDS011;6170;42.206;24.142;2023-09-07T08:50:20;13.77;;;13.00;;
12214;SDS011;6170;42.206;24.142;2023-09-07T08:52:50;16.25;;;15.35;;
12214;SDS011;6170;42.206;24.142;2023-09-07T08:55:19;15.20;;;14.40;;
12214;SDS011;6170;42.206;24.142;2023-09-07T08:57:47;15.75;;;14.85;;
12214;SDS011;6170;42.206;24.142;2023-09-07T09:00:15;16.42;;;15.52;;
12214;SDS011;6170;42.206;24.142;2023-09-07T09:02:46;16.25;;;15.15;;
12214;SDS011;6170;42.206;24.142;2023-09-07T09:05:13;14.40;;;13.63;;
12214;SDS011;6170;42.206;24.142;2023-09-07T09:07:44;13.90;;;13.10;;
12214;SDS011;6170;42.206;24.142;2023-09-07T09:10:11;12.65;;;11.95;;
12214;SDS011;6170;42.206;24.142;2023-09-07T09:12:44;13.23;;;12.52;;
12214;SDS011;6170;42.206;24.142;2023-09-07T09:15:12;12.75;;;12.05;;
12214;SDS011;6170;42.206;24.142;2023-09-07T09:17:39;11.32;;;10.73;;
12214;SDS011;6170;42.206;24.142;2023-09-07T09:20:19;10.73;;;10.13;;
12214;SDS011;6170;42.206;24.142;2023-09-07T09:22:49;12.15;;;11.45;;
12214;SDS011;6170;42.206;24.142;2023-09-07T09:25:17;11.68;;;11.07;;
12214;SDS011;6170;42.206;24.142;2023-09-07T09:27:44;11.43;;;10.82;;
12214;SDS011;6170;42.206;24.142;2023-09-07T09:30:11;11.57;;;10.93;;
12214;SDS011;6170;42.206;24.142;2023-09-07T09:32:41;13.60;;;12.88;;
12214;SDS011;6170;42.206;24.142;2023-09-07T09:35:08;10.68;;;10.07;;
12214;SDS011;6170;42.206;24.142;2023-09-07T09:37:43;11.43;;;10.82;;
12214;SDS011;6170;42.206;24.142;2023-09-07T09:40:12;12.00;;;11.40;;
12214;SDS011;6170;42.206;24.142;2023-09-07T09:42:40;14.15;;;13.35;;
12214;SDS011;6170;42.206;24.142;2023-09-07T09:45:08;14.60;;;13.75;;
12214;SDS011;6170;42.206;24.142;2023-09-07T09:47:37;15.93;;;15.02;;
12214;SDS011;6170;42.206;24.142;2023-09-07T09:50:06;14.77;;;13.98;;
12214;SDS011;6170;42.206;24.142;2023-09-07T09:52:34;15.05;;;14.25;;
12214;SDS011;6170;42.206;24.142;2023-09-07T09:55:03;17.75;;;16.83;;
12214;SDS011;6170;42.206;24.142;2023-09-07T09:57:34;18.40;;;17.40;;
12214;SDS011;6170;42.206;24.142;2023-09-07T10:00:02;18.33;;;17.33;;
12214;SDS011;6170;42.206;24.142;2023-09-07T10:02:45;15.13;;;14.27;;
12214;SDS011;6170;42.206;24.142;2023-09-07T10:05:15;14.13;;;13.32;;
12214;SDS011;6170;42.206;24.142;2023-09-07T10:07:44;14.57;;;13.77;;
12214;SDS011;6170;42.206;24.142;2023-09-07T10:10:14;14.00;;;13.20;;
12214;SDS011;6170;42.206;24.142;2023-09-07T10:12:43;15.23;;;14.43;;
12214;SDS011;6170;42.206;24.142;2023-09-07T10:15:23;15.30;;;14.50;;
12214;SDS011;6170;42.206;24.142;2023-09-07T10:17:50;11.88;;;11.25;;
12214;SDS011;6170;42.206;24.142;2023-09-07T10:20:29;14.27;;;13.25;;
12214;SDS011;6170;42.206;24.142;2023-09-07T10:23:13;14.60;;;13.80;;
12214;SDS011;6170;42.206;24.142;2023-09-07T10:25:40;14.35;;;13.55;;
12214;SDS011;6170;42.206;24.142;2023-09-07T10:28:18;11.90;;;11.13;;
12214;SDS011;6170;42.206;24.142;2023-09-07T10:30:45;10.52;;;9.93;;
12214;SDS011;6170;42.206;24.142;2023-09-07T10:33:24;13.23;;;12.50;;
12214;SDS011;6170;42.206;24.142;2023-09-07T10:35:51;13.75;;;12.95;;
12214;SDS011;6170;42.206;24.142;2023-09-07T10:38:18;12.57;;;11.88;;
12214;SDS011;6170;42.206;24.142;2023-09-07T10:40:45;13.88;;;13.07;;
12214;SDS011;6170;42.206;24.142;2023-09-07T10:43:12;14.18;;;13.38;;
12214;SDS011;6170;42.206;24.142;2023-09-07T10:45:43;13.43;;;12.73;;
12214;SDS011;6170;42.206;24.142;2023-09-07T10:48:11;14.13;;;13.23;;
12214;SDS011;6170;42.206;24.142;2023-09-07T10:50:42;16.00;;;15.07;;
12214;SDS011;6170;42.206;24.142;2023-09-07T10:53:11;17.25;;;16.25;;
12214;SDS011;6170;42.206;24.142;2023-09-07T10:55:39;13.40;;;12.70;;
12214;SDS011;6170;42.206;24.142;2023-09-07T10:58:08;16.05;;;15.20;;
12214;SDS011;6170;42.206;24.142;2023-09-07T11:00:35;16.02;;;15.18;;
12214;SDS011;6170;42.206;24.142;2023-09-07T11:03:12;13.73;;;12.95;;
12214;SDS011;6170;42.206;24.142;2023-09-07T11:05:39;12.68;;;11.77;;
12214;SDS011;6170;42.206;24.142;2023-09-07T11:08:07;15.10;;;14.20;;
12214;SDS011;6170;42.206;24.142;2023-09-07T11:10:34;12.38;;;11.68;;
12214;SDS011;6170;42.206;24.142;2023-09-07T11:13:02;12.77;;;12.07;;
12214;SDS011;6170;42.206;24.142;2023-09-07T11:15:30;14.20;;;13.40;;
12214;SDS011;6170;42.206;24.142;2023-09-07T11:17:58;14.00;;;13.20;;
12214;SDS011;6170;42.206;24.142;2023-09-07T11:20:32;13.45;;;12.65;;
12214;SDS011;6170;42.206;24.142;2023-09-07T11:22:59;14.00;;;13.20;;
12214;SDS011;6170;42.206;24.142;2023-09-07T11:25:26;14.63;;;13.82;;
12214;SDS011;6170;42.206;24.142;2023-09-07T11:27:53;15.80;;;14.93;;
12214;SDS011;6170;42.206;24.142;2023-09-07T11:30:22;13.73;;;12.93;;
12214;SDS011;6170;42.206;24.142;2023-09-07T11:32:50;14.55;;;13.85;;
12214;SDS011;6170;42.206;24.142;2023-09-07T11:35:17;12.85;;;12.15;;
12214;SDS011;6170;42.206;24.142;2023-09-07T11:37:51;15.38;;;14.50;;
12214;SDS011;6170;42.206;24.142;2023-09-07T11:40:18;14.85;;;14.05;;
12214;SDS011;6170;42.206;24.142;2023-09-07T11:42:45;15.52;;;14.52;;
12214;SDS011;6170;42.206;24.142;2023-09-07T11:45:12;14.23;;;13.45;;
12214;SDS011;6170;42.206;24.142;2023-09-07T11:47:40;16.23;;;15.32;;
12214;SDS011;6170;42.206;24.142;2023-09-07T11:50:07;16.88;;;16.00;;
12214;SDS011;6170;42.206;24.142;2023-09-07T11:52:35;18.10;;;17.10;;
12214;SDS011;6170;42.206;24.142;2023-09-07T11:55:03;20.17;;;19.13;;
12214;SDS011;6170;42.206;24.142;2023-09-07T11:57:31;21.95;;;20.38;;
12214;SDS011;6170;42.206;24.142;2023-09-07T11:59:58;22.13;;;20.90;;
12214;SDS011;6170;42.206;24.142;2023-09-07T12:02:24;66.13;;;53.63;;
12214;SDS011;6170;42.206;24.142;2023-09-07T12:04:51;39.97;;;36.40;;
12214;SDS011;6170;42.206;24.142;2023-09-07T12:07:19;34.45;;;31.48;;
12214;SDS011;6170;42.206;24.142;2023-09-07T12:09:46;23.45;;;21.98;;
12214;SDS011;6170;42.206;24.142;2023-09-07T12:12:15;71.60;;;55.38;;
12214;SDS011;6170;42.206;24.142;2023-09-07T12:14:42;161.13;;;114.38;;
12214;SDS011;6170;42.206;24.142;2023-09-07T12:17:08;42.25;;;38.22;;
12214;SDS011;6170;42.206;24.142;2023-09-07T12:19:36;135.05;;;74.53;;
12214;SDS011;6170;42.206;24.142;2023-09-07T12:22:03;65.80;;;50.53;;
12214;SDS011;6170;42.206;24.142;2023-09-07T12:24:30;34.70;;;31.13;;
12214;SDS011;6170;42.206;24.142;2023-09-07T12:26:57;19.30;;;18.00;;
12214;SDS011;6170;42.206;24.142;2023-09-07T12:29:26;36.25;;;32.40;;
12214;SDS011;6170;42.206;24.142;2023-09-07T12:31:53;20.02;;;18.63;;
12214;SDS011;6170;42.206;24.142;2023-09-07T12:34:20;20.27;;;18.90;;
12214;SDS011;6170;42.206;24.142;2023-09-07T12:36:46;18.23;;;17.13;;
12214;SDS011;6170;42.206;24.142;2023-09-07T12:39:14;16.10;;;15.10;;
12214;SDS011;6170;42.206;24.142;2023-09-07T12:41:42;17.08;;;16.17;;
12214;SDS011;6170;42.206;24.142;2023-09-07T12:44:09;15.80;;;14.90;;
12214;SDS011;6170;42.206;24.142;2023-09-07T12:46:37;16.73;;;15.82;;
12214;SDS011;6170;42.206;24.142;2023-09-07T12:49:04;17.35;;;16.40;;
12214;SDS011;6170;42.206;24.142;2023-09-07T12:51:31;16.20;;;15.35;;
12214;SDS011;6170;42.206;24.142;2023-09-07T12:53:58;16.20;;;15.30;;
12214;SDS011;6170;42.206;24.142;2023-09-07T12:56:25;16.95;;;16.05;;
12214;SDS011;6170;42.206;24.142;2023-09-07T12:58:52;15.35;;;14.48;;
12214;SDS011;6170;42.206;24.142;2023-09-07T13:01:19;17.60;;;16.58;;
12214;SDS011;6170;42.206;24.142;2023-09-07T13:03:47;17.45;;;16.45;;
12214;SDS011;6170;42.206;24.142;2023-09-07T13:06:14;18.35;;;17.35;;
12214;SDS011;6170;42.206;24.142;2023-09-07T13:08:42;16.42;;;15.50;;
12214;SDS011;6170;42.206;24.142;2023-09-07T13:11:09;18.02;;;16.85;;
12214;SDS011;6170;42.206;24.142;2023-09-07T13:13:37;20.17;;;19.08;;
12214;SDS011;6170;42.206;24.142;2023-09-07T13:16:04;16.55;;;15.65;;
12214;SDS011;6170;42.206;24.142;2023-09-07T13:18:31;17.65;;;16.63;;
12214;SDS011;6170;42.206;24.142;2023-09-07T13:20:59;18.40;;;17.40;;
12214;SDS011;6170;42.206;24.142;2023-09-07T13:23:27;19.42;;;18.33;;
12214;SDS011;6170;42.206;24.142;2023-09-07T13:25:54;18.80;;;17.80;;
12214;SDS011;6170;42.206;24.142;2023-09-07T13:28:21;16.70;;;15.80;;
12214;SDS011;6170;42.206;24.142;2023-09-07T13:30:48;16.60;;;15.60;;
12214;SDS011;6170;42.206;24.142;2023-09-07T13:33:16;15.35;;;14.55;;
12214;SDS011;6170;42.206;24.142;2023-09-07T13:35:43;15.57;;;14.68;;
12214;SDS011;6170;42.206;24.142;2023-09-07T13:38:12;15.18;;;14.27;;
12214;SDS011;6170;42.206;24.142;2023-09-07T13:40:39;14.98;;;14.18;;
12214;SDS011;6170;42.206;24.142;2023-09-07T13:43:06;13.73;;;12.98;;
12214;SDS011;6170;42.206;24.142;2023-09-07T13:45:33;14.48;;;13.60;;
12214;SDS011;6170;42.206;24.142;2023-09-07T13:48:00;13.35;;;12.57;;
12214;SDS011;6170;42.206;24.142;2023-09-07T13:50:28;13.75;;;13.05;;
12214;SDS011;6170;42.206;24.142;2023-09-07T13:52:55;11.98;;;11.35;;
12214;SDS011;6170;42.206;24.142;2023-09-07T13:55:24;9.52;;;9.02;;
12214;SDS011;6170;42.206;24.142;2023-09-07T13:57:51;10.38;;;9.77;;
12214;SDS011;6170;42.206;24.142;2023-09-07T14:00:18;11.48;;;10.88;;
12214;SDS011;6170;42.206;24.142;2023-09-07T14:02:45;10.40;;;9.80;;
12214;SDS011;6170;42.206;24.142;2023-09-07T14:05:12;12.18;;;11.48;;
12214;SDS011;6170;42.206;24.142;2023-09-07T14:07:39;13.02;;;12.30;;
12214;SDS011;6170;42.206;24.142;2023-09-07T14:10:06;13.68;;;12.98;;
12214;SDS011;6170;42.206;24.142;2023-09-07T14:12:35;17.95;;;17.02;;
12214;SDS011;6170;42.206;24.142;2023-09-07T14:15:02;21.13;;;20.02;;
12214;SDS011;6170;42.206;24.142;2023-09-07T14:17:29;18.77;;;17.77;;
12214;SDS011;6170;42.206;24.142;2023-09-07T14:19:56;11.68;;;10.98;;
12214;SDS011;6170;42.206;24.142;2023-09-07T14:22:23;8.65;;;8.13;;
12214;SDS011;6170;42.206;24.142;2023-09-07T14:24:50;9.32;;;8.82;;